sensor_id;sensor_type;location;lat;lon;timestamp;P1;durP1;ratioP1;P2;durP2;ratioP2
69979;SDS011;57318;56.232;43.944;2022-10-16T00:03:22;10.98;;;6.53;;
69979;SDS011;57318;56.232;43.944;2022-10-16T00:05:48;9.85;;;6.10;;
69979;SDS011;57318;56.232;43.944;2022-10-16T00:08:14;15.90;;;7.07;;
69979;SDS011;57318;56.232;43.944;2022-10-16T00:10:39;11.03;;;6.47;;
69979;SDS011;57318;56.232;43.944;2022-10-16T00:13:05;12.57;;;7.40;;
69979;SDS011;57318;56.232;43.944;2022-10-16T00:19:12;11.77;;;6.45;;
69979;SDS011;57318;56.232;43.944;2022-10-16T00:21:38;13.37;;;6.60;;
69979;SDS011;57318;56.232;43.944;2022-10-16T00:24:22;10.38;;;6.32;;
69979;SDS011;57318;56.232;43.944;2022-10-16T00:26:49;13.37;;;7.43;;
69979;SDS011;57318;56.232;43.944;2022-10-16T00:29:16;12.23;;;6.65;;
69979;SDS011;57318;56.232;43.944;2022-10-16T00:31:41;11.23;;;7.17;;
69979;SDS011;57318;56.232;43.944;2022-10-16T00:34:07;13.53;;;7.30;;
69979;SDS011;57318;56.232;43.944;2022-10-16T00:36:32;12.17;;;6.93;;
69979;SDS011;57318;56.232;43.944;2022-10-16T00:38:58;12.40;;;7.17;;
69979;SDS011;57318;56.232;43.944;2022-10-16T00:41:25;14.38;;;7.82;;
69979;SDS011;57318;56.232;43.944;2022-10-16T00:46:37;11.40;;;6.70;;
69979;SDS011;57318;56.232;43.944;2022-10-16T00:49:05;12.13;;;7.40;;
69979;SDS011;57318;56.232;43.944;2022-10-16T00:51:35;14.27;;;7.97;;
69979;SDS011;57318;56.232;43.944;2022-10-16T00:54:04;16.00;;;7.80;;
69979;SDS011;57318;56.232;43.944;2022-10-16T00:56:35;12.52;;;7.95;;
69979;SDS011;57318;56.232;43.944;2022-10-16T00:59:04;13.50;;;7.07;;
69979;SDS011;57318;56.232;43.944;2022-10-16T01:01:39;15.80;;;7.60;;
69979;SDS011;57318;56.232;43.944;2022-10-16T01:04:04;14.20;;;7.97;;
69979;SDS011;57318;56.232;43.944;2022-10-16T01:12:33;13.07;;;7.72;;
69979;SDS011;57318;56.232;43.944;2022-10-16T01:15:15;13.73;;;7.60;;
69979;SDS011;57318;56.232;43.944;2022-10-16T01:18:10;11.02;;;7.07;;
69979;SDS011;57318;56.232;43.944;2022-10-16T01:20:53;12.30;;;7.05;;
69979;SDS011;57318;56.232;43.944;2022-10-16T01:23:36;14.68;;;7.82;;
69979;SDS011;57318;56.232;43.944;2022-10-16T01:26:31;12.90;;;7.07;;
69979;SDS011;57318;56.232;43.944;2022-10-16T01:29:36;14.43;;;7.72;;
69979;SDS011;57318;56.232;43.944;2022-10-16T01:32:06;12.23;;;7.05;;
69979;SDS011;57318;56.232;43.944;2022-10-16T01:34:54;13.38;;;7.82;;
69979;SDS011;57318;56.232;43.944;2022-10-16T01:37:47;12.35;;;6.82;;
69979;SDS011;57318;56.232;43.944;2022-10-16T01:40:15;11.35;;;6.95;;
69979;SDS011;57318;56.232;43.944;2022-10-16T01:42:46;15.45;;;7.10;;
69979;SDS011;57318;56.232;43.944;2022-10-16T01:45:18;14.90;;;7.85;;
69979;SDS011;57318;56.232;43.944;2022-10-16T01:47:45;12.27;;;7.53;;
69979;SDS011;57318;56.232;43.944;2022-10-16T01:50:13;15.38;;;7.72;;
69979;SDS011;57318;56.232;43.944;2022-10-16T01:52:43;13.48;;;7.40;;
69979;SDS011;57318;56.232;43.944;2022-10-16T01:55:12;12.93;;;7.38;;
69979;SDS011;57318;56.232;43.944;2022-10-16T01:57:42;15.98;;;7.70;;
69979;SDS011;57318;56.232;43.944;2022-10-16T02:00:12;13.77;;;7.32;;
69979;SDS011;57318;56.232;43.944;2022-10-16T02:02:43;13.35;;;7.38;;
69979;SDS011;57318;56.232;43.944;2022-10-16T02:07:59;15.23;;;7.45;;
69979;SDS011;57318;56.232;43.944;2022-10-16T02:10:25;14.70;;;7.93;;
69979;SDS011;57318;56.232;43.944;2022-10-16T02:13:03;11.82;;;7.68;;
69979;SDS011;57318;56.232;43.944;2022-10-16T02:15:54;14.20;;;7.72;;
69979;SDS011;57318;56.232;43.944;2022-10-16T02:18:19;19.27;;;7.87;;
69979;SDS011;57318;56.232;43.944;2022-10-16T02:23:23;15.50;;;7.25;;
69979;SDS011;57318;56.232;43.944;2022-10-16T02:25:56;13.80;;;7.72;;
69979;SDS011;57318;56.232;43.944;2022-10-16T02:28:30;12.40;;;7.32;;
69979;SDS011;57318;56.232;43.944;2022-10-16T02:31:04;15.27;;;7.90;;
69979;SDS011;57318;56.232;43.944;2022-10-16T02:33:34;16.95;;;7.80;;
69979;SDS011;57318;56.232;43.944;2022-10-16T02:36:02;15.77;;;8.32;;
69979;SDS011;57318;56.232;43.944;2022-10-16T02:38:28;14.07;;;8.03;;
69979;SDS011;57318;56.232;43.944;2022-10-16T02:40:55;12.85;;;7.95;;
69979;SDS011;57318;56.232;43.944;2022-10-16T02:43:21;14.43;;;7.78;;
69979;SDS011;57318;56.232;43.944;2022-10-16T02:45:47;12.43;;;7.37;;
69979;SDS011;57318;56.232;43.944;2022-10-16T02:48:13;14.07;;;7.97;;
69979;SDS011;57318;56.232;43.944;2022-10-16T02:50:38;16.77;;;8.43;;
69979;SDS011;57318;56.232;43.944;2022-10-16T02:53:04;18.27;;;8.10;;
69979;SDS011;57318;56.232;43.944;2022-10-16T02:55:29;16.33;;;7.90;;
69979;SDS011;57318;56.232;43.944;2022-10-16T02:57:55;17.00;;;8.50;;
69979;SDS011;57318;56.232;43.944;2022-10-16T03:00:21;15.00;;;7.80;;
69979;SDS011;57318;56.232;43.944;2022-10-16T03:02:46;13.73;;;7.70;;
69979;SDS011;57318;56.232;43.944;2022-10-16T03:05:12;14.90;;;8.17;;
69979;SDS011;57318;56.232;43.944;2022-10-16T03:07:39;15.27;;;8.30;;
69979;SDS011;57318;56.232;43.944;2022-10-16T03:10:05;15.68;;;7.90;;
69979;SDS011;57318;56.232;43.944;2022-10-16T03:12:32;14.45;;;7.47;;
69979;SDS011;57318;56.232;43.944;2022-10-16T03:14:58;17.35;;;8.45;;
69979;SDS011;57318;56.232;43.944;2022-10-16T03:17:24;15.07;;;7.80;;
69979;SDS011;57318;56.232;43.944;2022-10-16T03:19:50;16.77;;;7.68;;
69979;SDS011;57318;56.232;43.944;2022-10-16T03:22:16;14.10;;;8.07;;
69979;SDS011;57318;56.232;43.944;2022-10-16T03:24:41;17.97;;;8.30;;
69979;SDS011;57318;56.232;43.944;2022-10-16T03:27:07;16.43;;;8.40;;
69979;SDS011;57318;56.232;43.944;2022-10-16T03:29:33;13.23;;;8.10;;
69979;SDS011;57318;56.232;43.944;2022-10-16T03:32:02;19.27;;;8.38;;
69979;SDS011;57318;56.232;43.944;2022-10-16T03:34:28;15.02;;;8.38;;
69979;SDS011;57318;56.232;43.944;2022-10-16T03:36:54;12.37;;;7.60;;
69979;SDS011;57318;56.232;43.944;2022-10-16T03:39:23;14.00;;;8.13;;
69979;SDS011;57318;56.232;43.944;2022-10-16T03:41:49;14.18;;;8.32;;
69979;SDS011;57318;56.232;43.944;2022-10-16T03:44:15;13.47;;;7.63;;
69979;SDS011;57318;56.232;43.944;2022-10-16T03:46:41;16.45;;;8.20;;
69979;SDS011;57318;56.232;43.944;2022-10-16T03:49:07;14.50;;;8.10;;
69979;SDS011;57318;56.232;43.944;2022-10-16T03:51:33;13.55;;;8.10;;
69979;SDS011;57318;56.232;43.944;2022-10-16T03:54:02;14.93;;;8.80;;
69979;SDS011;57318;56.232;43.944;2022-10-16T03:56:28;15.50;;;8.30;;
69979;SDS011;57318;56.232;43.944;2022-10-16T03:58:54;14.63;;;8.40;;
69979;SDS011;57318;56.232;43.944;2022-10-16T04:01:20;14.88;;;7.90;;
69979;SDS011;57318;56.232;43.944;2022-10-16T04:03:46;13.87;;;7.83;;
69979;SDS011;57318;56.232;43.944;2022-10-16T04:06:11;15.93;;;8.07;;
69979;SDS011;57318;56.232;43.944;2022-10-16T04:08:37;17.27;;;8.90;;
69979;SDS011;57318;56.232;43.944;2022-10-16T04:13:30;15.68;;;7.70;;
69979;SDS011;57318;56.232;43.944;2022-10-16T04:15:55;12.60;;;7.67;;
69979;SDS011;57318;56.232;43.944;2022-10-16T04:18:21;18.03;;;8.67;;
69979;SDS011;57318;56.232;43.944;2022-10-16T04:20:46;16.73;;;9.10;;
69979;SDS011;57318;56.232;43.944;2022-10-16T06:31:42;11.77;;;8.70;;
69979;SDS011;57318;56.232;43.944;2022-10-16T06:34:08;13.97;;;8.63;;
69979;SDS011;57318;56.232;43.944;2022-10-16T06:36:35;14.32;;;8.02;;
69979;SDS011;57318;56.232;43.944;2022-10-16T06:39:02;15.32;;;9.20;;
69979;SDS011;57318;56.232;43.944;2022-10-16T06:41:28;15.57;;;8.98;;
69979;SDS011;57318;56.232;43.944;2022-10-16T06:43:54;14.20;;;9.03;;
69979;SDS011;57318;56.232;43.944;2022-10-16T06:46:21;13.50;;;8.37;;
69979;SDS011;57318;56.232;43.944;2022-10-16T06:48:48;13.00;;;8.23;;
69979;SDS011;57318;56.232;43.944;2022-10-16T06:51:15;15.77;;;8.27;;
69979;SDS011;57318;56.232;43.944;2022-10-16T06:53:43;14.05;;;8.13;;
69979;SDS011;57318;56.232;43.944;2022-10-16T06:56:29;21.17;;;12.48;;
69979;SDS011;57318;56.232;43.944;2022-10-16T06:58:57;15.18;;;8.77;;
69979;SDS011;57318;56.232;43.944;2022-10-16T07:01:24;12.93;;;8.25;;
69979;SDS011;57318;56.232;43.944;2022-10-16T07:03:50;13.32;;;7.90;;
69979;SDS011;57318;56.232;43.944;2022-10-16T07:06:18;11.90;;;8.10;;
69979;SDS011;57318;56.232;43.944;2022-10-16T07:08:46;14.50;;;8.40;;
69979;SDS011;57318;56.232;43.944;2022-10-16T07:11:13;14.50;;;8.05;;
69979;SDS011;57318;56.232;43.944;2022-10-16T07:13:41;14.10;;;8.23;;
69979;SDS011;57318;56.232;43.944;2022-10-16T07:16:09;11.95;;;7.65;;
69979;SDS011;57318;56.232;43.944;2022-10-16T07:18:37;13.07;;;7.30;;
69979;SDS011;57318;56.232;43.944;2022-10-16T07:21:06;15.73;;;7.97;;
69979;SDS011;57318;56.232;43.944;2022-10-16T07:23:32;13.85;;;7.53;;
69979;SDS011;57318;56.232;43.944;2022-10-16T07:25:58;15.73;;;8.37;;
69979;SDS011;57318;56.232;43.944;2022-10-16T07:28:24;16.23;;;7.97;;
69979;SDS011;57318;56.232;43.944;2022-10-16T07:30:50;14.93;;;8.53;;
69979;SDS011;57318;56.232;43.944;2022-10-16T07:33:16;15.30;;;8.37;;
69979;SDS011;57318;56.232;43.944;2022-10-16T07:35:51;13.93;;;8.33;;
69979;SDS011;57318;56.232;43.944;2022-10-16T07:38:18;13.70;;;7.90;;
69979;SDS011;57318;56.232;43.944;2022-10-16T07:40:44;12.93;;;8.25;;
69979;SDS011;57318;56.232;43.944;2022-10-16T07:43:10;12.13;;;7.63;;
69979;SDS011;57318;56.232;43.944;2022-10-16T07:45:36;13.52;;;8.07;;
69979;SDS011;57318;56.232;43.944;2022-10-16T07:48:02;16.73;;;7.80;;
69979;SDS011;57318;56.232;43.944;2022-10-16T07:50:28;13.50;;;8.17;;
69979;SDS011;57318;56.232;43.944;2022-10-16T07:52:53;15.37;;;8.47;;
69979;SDS011;57318;56.232;43.944;2022-10-16T07:55:19;13.90;;;7.87;;
69979;SDS011;57318;56.232;43.944;2022-10-16T07:57:44;10.67;;;7.10;;
69979;SDS011;57318;56.232;43.944;2022-10-16T08:00:10;12.20;;;7.53;;
69979;SDS011;57318;56.232;43.944;2022-10-16T08:02:41;10.48;;;7.47;;
69979;SDS011;57318;56.232;43.944;2022-10-16T08:05:07;12.07;;;8.02;;
69979;SDS011;57318;56.232;43.944;2022-10-16T08:07:33;12.60;;;7.70;;
69979;SDS011;57318;56.232;43.944;2022-10-16T08:09:59;13.33;;;7.73;;
69979;SDS011;57318;56.232;43.944;2022-10-16T08:12:25;11.23;;;8.03;;
69979;SDS011;57318;56.232;43.944;2022-10-16T08:14:51;10.57;;;7.90;;
69979;SDS011;57318;56.232;43.944;2022-10-16T08:17:17;15.53;;;9.87;;
69979;SDS011;57318;56.232;43.944;2022-10-16T08:19:46;10.10;;;8.10;;
69979;SDS011;57318;56.232;43.944;2022-10-16T08:22:12;14.68;;;8.85;;
69979;SDS011;57318;56.232;43.944;2022-10-16T08:24:39;12.15;;;8.18;;
69979;SDS011;57318;56.232;43.944;2022-10-16T08:27:04;13.07;;;9.40;;
69979;SDS011;57318;56.232;43.944;2022-10-16T08:29:30;14.27;;;9.63;;
69979;SDS011;57318;56.232;43.944;2022-10-16T08:31:56;12.70;;;10.00;;
69979;SDS011;57318;56.232;43.944;2022-10-16T08:34:22;13.13;;;9.60;;
69979;SDS011;57318;56.232;43.944;2022-10-16T08:36:47;14.90;;;9.93;;
69979;SDS011;57318;56.232;43.944;2022-10-16T08:39:13;17.42;;;10.68;;
69979;SDS011;57318;56.232;43.944;2022-10-16T08:47:13;15.02;;;10.45;;
69979;SDS011;57318;56.232;43.944;2022-10-16T08:49:51;20.08;;;13.82;;
69979;SDS011;57318;56.232;43.944;2022-10-16T08:52:23;23.35;;;12.07;;
69979;SDS011;57318;56.232;43.944;2022-10-16T08:54:55;21.15;;;11.65;;
69979;SDS011;57318;56.232;43.944;2022-10-16T08:57:22;16.17;;;11.63;;
69979;SDS011;57318;56.232;43.944;2022-10-16T08:59:51;17.30;;;10.73;;
69979;SDS011;57318;56.232;43.944;2022-10-16T09:05:10;18.58;;;11.10;;
69979;SDS011;57318;56.232;43.944;2022-10-16T09:18:44;20.20;;;10.80;;
69979;SDS011;57318;56.232;43.944;2022-10-16T09:21:21;21.38;;;11.82;;
69979;SDS011;57318;56.232;43.944;2022-10-16T09:23:51;16.23;;;10.68;;
69979;SDS011;57318;56.232;43.944;2022-10-16T09:26:17;18.63;;;11.80;;
69979;SDS011;57318;56.232;43.944;2022-10-16T09:28:44;17.27;;;11.15;;
69979;SDS011;57318;56.232;43.944;2022-10-16T09:31:17;20.40;;;11.63;;
69979;SDS011;57318;56.232;43.944;2022-10-16T09:33:46;20.50;;;11.57;;
69979;SDS011;57318;56.232;43.944;2022-10-16T09:36:17;20.92;;;11.93;;
69979;SDS011;57318;56.232;43.944;2022-10-16T09:38:45;17.65;;;11.35;;
69979;SDS011;57318;56.232;43.944;2022-10-16T09:41:17;18.83;;;11.60;;
69979;SDS011;57318;56.232;43.944;2022-10-16T09:48:54;17.15;;;10.82;;
69979;SDS011;57318;56.232;43.944;2022-10-16T09:51:24;16.38;;;10.48;;
69979;SDS011;57318;56.232;43.944;2022-10-16T09:53:54;17.90;;;11.13;;
69979;SDS011;57318;56.232;43.944;2022-10-16T09:56:23;17.83;;;11.23;;
69979;SDS011;57318;56.232;43.944;2022-10-16T09:58:59;20.70;;;12.13;;
69979;SDS011;57318;56.232;43.944;2022-10-16T10:01:45;14.98;;;10.38;;
69979;SDS011;57318;56.232;43.944;2022-10-16T10:04:13;14.05;;;11.02;;
69979;SDS011;57318;56.232;43.944;2022-10-16T10:06:46;16.50;;;10.90;;
69979;SDS011;57318;56.232;43.944;2022-10-16T10:11:51;20.05;;;12.02;;
69979;SDS011;57318;56.232;43.944;2022-10-16T10:14:27;16.27;;;10.60;;
69979;SDS011;57318;56.232;43.944;2022-10-16T10:19:30;15.43;;;11.13;;
69979;SDS011;57318;56.232;43.944;2022-10-16T10:30:28;19.33;;;11.90;;
69979;SDS011;57318;56.232;43.944;2022-10-16T10:46:42;14.40;;;10.57;;
69979;SDS011;57318;56.232;43.944;2022-10-16T10:57:55;14.63;;;9.70;;
69979;SDS011;57318;56.232;43.944;2022-10-16T11:06:33;11.13;;;7.50;;
69979;SDS011;57318;56.232;43.944;2022-10-16T11:09:12;11.98;;;7.32;;
69979;SDS011;57318;56.232;43.944;2022-10-16T11:11:53;10.85;;;7.43;;
69979;SDS011;57318;56.232;43.944;2022-10-16T11:14:28;12.95;;;7.93;;
69979;SDS011;57318;56.232;43.944;2022-10-16T11:17:08;13.57;;;7.95;;
69979;SDS011;57318;56.232;43.944;2022-10-16T11:19:44;11.75;;;7.80;;
69979;SDS011;57318;56.232;43.944;2022-10-16T11:22:18;11.07;;;6.93;;
69979;SDS011;57318;56.232;43.944;2022-10-16T11:32:50;10.85;;;7.55;;
69979;SDS011;57318;56.232;43.944;2022-10-16T11:38:21;10.43;;;6.60;;
69979;SDS011;57318;56.232;43.944;2022-10-16T11:40:51;10.57;;;6.75;;
69979;SDS011;57318;56.232;43.944;2022-10-16T11:46:02;11.23;;;7.25;;
69979;SDS011;57318;56.232;43.944;2022-10-16T11:54:36;9.43;;;6.68;;
69979;SDS011;57318;56.232;43.944;2022-10-16T11:57:09;9.57;;;6.65;;
69979;SDS011;57318;56.232;43.944;2022-10-16T11:59:49;10.05;;;6.65;;
69979;SDS011;57318;56.232;43.944;2022-10-16T12:02:33;11.32;;;6.90;;
69979;SDS011;57318;56.232;43.944;2022-10-16T12:10:35;10.07;;;6.70;;
69979;SDS011;57318;56.232;43.944;2022-10-16T12:13:26;8.25;;;6.45;;
69979;SDS011;57318;56.232;43.944;2022-10-16T12:18:36;6.47;;;5.18;;
69979;SDS011;57318;56.232;43.944;2022-10-16T12:21:03;6.82;;;5.10;;
69979;SDS011;57318;56.232;43.944;2022-10-16T12:23:52;6.60;;;5.10;;
69979;SDS011;57318;56.232;43.944;2022-10-16T12:28:57;6.70;;;4.70;;
69979;SDS011;57318;56.232;43.944;2022-10-16T12:31:47;7.82;;;4.90;;
69979;SDS011;57318;56.232;43.944;2022-10-16T12:37:10;8.43;;;5.65;;
69979;SDS011;57318;56.232;43.944;2022-10-16T12:39:44;10.93;;;5.78;;
69979;SDS011;57318;56.232;43.944;2022-10-16T12:42:22;11.05;;;6.22;;
69979;SDS011;57318;56.232;43.944;2022-10-16T12:44:59;9.63;;;6.22;;
69979;SDS011;57318;56.232;43.944;2022-10-16T12:49:57;9.52;;;5.90;;
69979;SDS011;57318;56.232;43.944;2022-10-16T12:52:37;8.05;;;6.25;;
69979;SDS011;57318;56.232;43.944;2022-10-16T12:55:04;8.15;;;6.35;;
69979;SDS011;57318;56.232;43.944;2022-10-16T13:02:56;14.65;;;9.23;;
69979;SDS011;57318;56.232;43.944;2022-10-16T13:05:53;12.65;;;7.95;;
69979;SDS011;57318;56.232;43.944;2022-10-16T13:08:35;16.42;;;9.48;;
69979;SDS011;57318;56.232;43.944;2022-10-16T13:19:52;14.70;;;7.95;;
69979;SDS011;57318;56.232;43.944;2022-10-16T13:26:16;14.05;;;6.95;;
69979;SDS011;57318;56.232;43.944;2022-10-16T13:28:48;11.18;;;6.93;;
69979;SDS011;57318;56.232;43.944;2022-10-16T13:31:19;12.73;;;7.05;;
69979;SDS011;57318;56.232;43.944;2022-10-16T13:33:56;13.45;;;6.90;;
69979;SDS011;57318;56.232;43.944;2022-10-16T13:36:28;14.73;;;6.63;;
69979;SDS011;57318;56.232;43.944;2022-10-16T13:41:45;13.23;;;7.50;;
69979;SDS011;57318;56.232;43.944;2022-10-16T13:44:23;14.18;;;7.78;;
69979;SDS011;57318;56.232;43.944;2022-10-16T13:46:57;16.13;;;8.20;;
69979;SDS011;57318;56.232;43.944;2022-10-16T13:49:24;18.27;;;7.97;;
69979;SDS011;57318;56.232;43.944;2022-10-16T13:51:53;17.87;;;7.70;;
69979;SDS011;57318;56.232;43.944;2022-10-16T13:54:21;14.40;;;7.28;;
69979;SDS011;57318;56.232;43.944;2022-10-16T13:59:26;14.18;;;7.55;;
69979;SDS011;57318;56.232;43.944;2022-10-16T14:01:58;10.60;;;6.88;;
69979;SDS011;57318;56.232;43.944;2022-10-16T14:04:26;12.35;;;6.93;;
69979;SDS011;57318;56.232;43.944;2022-10-16T14:06:57;13.07;;;7.35;;
69979;SDS011;57318;56.232;43.944;2022-10-16T14:09:23;15.17;;;7.07;;
69979;SDS011;57318;56.232;43.944;2022-10-16T14:11:51;13.60;;;6.68;;
69979;SDS011;57318;56.232;43.944;2022-10-16T14:14:20;11.77;;;6.60;;
69979;SDS011;57318;56.232;43.944;2022-10-16T14:16:47;15.07;;;7.53;;
69979;SDS011;57318;56.232;43.944;2022-10-16T14:19:23;12.80;;;7.13;;
69979;SDS011;57318;56.232;43.944;2022-10-16T14:21:52;13.13;;;6.35;;
69979;SDS011;57318;56.232;43.944;2022-10-16T14:24:34;12.55;;;6.65;;
69979;SDS011;57318;56.232;43.944;2022-10-16T14:27:00;12.27;;;6.60;;
69979;SDS011;57318;56.232;43.944;2022-10-16T14:29:27;11.82;;;7.18;;
69979;SDS011;57318;56.232;43.944;2022-10-16T14:34:52;11.75;;;7.07;;
69979;SDS011;57318;56.232;43.944;2022-10-16T14:37:26;14.05;;;7.10;;
69979;SDS011;57318;56.232;43.944;2022-10-16T14:39:54;11.05;;;6.80;;
69979;SDS011;57318;56.232;43.944;2022-10-16T14:42:37;10.10;;;6.57;;
69979;SDS011;57318;56.232;43.944;2022-10-16T14:45:07;15.65;;;7.45;;
69979;SDS011;57318;56.232;43.944;2022-10-16T14:47:36;12.70;;;6.85;;
69979;SDS011;57318;56.232;43.944;2022-10-16T14:50:14;13.40;;;6.55;;
69979;SDS011;57318;56.232;43.944;2022-10-16T14:52:40;9.83;;;6.03;;
69979;SDS011;57318;56.232;43.944;2022-10-16T14:55:07;12.87;;;6.30;;
69979;SDS011;57318;56.232;43.944;2022-10-16T14:57:33;14.48;;;7.65;;
69979;SDS011;57318;56.232;43.944;2022-10-16T15:00:02;12.20;;;6.82;;
69979;SDS011;57318;56.232;43.944;2022-10-16T15:02:34;13.98;;;6.47;;
69979;SDS011;57318;56.232;43.944;2022-10-16T15:07:38;11.85;;;6.60;;
69979;SDS011;57318;56.232;43.944;2022-10-16T15:10:04;15.30;;;6.77;;
69979;SDS011;57318;56.232;43.944;2022-10-16T15:12:30;11.30;;;6.38;;
69979;SDS011;57318;56.232;43.944;2022-10-16T15:14:55;12.33;;;6.57;;
69979;SDS011;57318;56.232;43.944;2022-10-16T15:17:21;13.97;;;6.87;;
69979;SDS011;57318;56.232;43.944;2022-10-16T15:19:47;13.50;;;7.30;;
69979;SDS011;57318;56.232;43.944;2022-10-16T15:22:12;13.80;;;6.97;;
69979;SDS011;57318;56.232;43.944;2022-10-16T15:24:38;9.50;;;6.30;;
69979;SDS011;57318;56.232;43.944;2022-10-16T15:27:03;16.07;;;7.20;;
69979;SDS011;57318;56.232;43.944;2022-10-16T15:29:29;12.30;;;7.53;;
69979;SDS011;57318;56.232;43.944;2022-10-16T15:31:57;12.80;;;6.53;;
69979;SDS011;57318;56.232;43.944;2022-10-16T15:34:26;14.70;;;7.72;;
69979;SDS011;57318;56.232;43.944;2022-10-16T15:36:51;11.27;;;6.40;;
69979;SDS011;57318;56.232;43.944;2022-10-16T15:39:18;15.10;;;6.95;;
69979;SDS011;57318;56.232;43.944;2022-10-16T15:41:45;10.13;;;5.65;;
69979;SDS011;57318;56.232;43.944;2022-10-16T15:44:19;10.23;;;6.43;;
69979;SDS011;57318;56.232;43.944;2022-10-16T15:46:46;13.02;;;5.80;;
69979;SDS011;57318;56.232;43.944;2022-10-16T15:49:12;13.87;;;6.37;;
69979;SDS011;57318;56.232;43.944;2022-10-16T15:51:39;11.85;;;6.22;;
69979;SDS011;57318;56.232;43.944;2022-10-16T15:54:06;10.63;;;5.55;;
69979;SDS011;57318;56.232;43.944;2022-10-16T15:56:32;10.57;;;6.40;;
69979;SDS011;57318;56.232;43.944;2022-10-16T15:59:01;14.18;;;6.82;;
69979;SDS011;57318;56.232;43.944;2022-10-16T16:01:27;11.73;;;5.55;;
69979;SDS011;57318;56.232;43.944;2022-10-16T16:03:54;12.00;;;6.22;;
69979;SDS011;57318;56.232;43.944;2022-10-16T16:06:20;10.20;;;5.73;;
69979;SDS011;57318;56.232;43.944;2022-10-16T16:08:47;13.15;;;5.90;;
69979;SDS011;57318;56.232;43.944;2022-10-16T16:11:13;11.00;;;6.13;;
69979;SDS011;57318;56.232;43.944;2022-10-16T16:13:40;14.48;;;6.10;;
69979;SDS011;57318;56.232;43.944;2022-10-16T16:16:07;10.65;;;6.30;;
69979;SDS011;57318;56.232;43.944;2022-10-16T16:18:34;11.55;;;6.60;;
69979;SDS011;57318;56.232;43.944;2022-10-16T16:21:01;13.50;;;5.55;;
69979;SDS011;57318;56.232;43.944;2022-10-16T16:23:27;13.47;;;6.03;;
69979;SDS011;57318;56.232;43.944;2022-10-16T16:28:51;14.07;;;7.07;;
69979;SDS011;57318;56.232;43.944;2022-10-16T16:31:18;12.57;;;6.47;;
69979;SDS011;57318;56.232;43.944;2022-10-16T16:33:44;17.45;;;7.45;;
69979;SDS011;57318;56.232;43.944;2022-10-16T16:36:10;12.13;;;6.72;;
69979;SDS011;57318;56.232;43.944;2022-10-16T16:38:36;12.53;;;7.00;;
69979;SDS011;57318;56.232;43.944;2022-10-16T16:41:12;13.20;;;7.57;;
69979;SDS011;57318;56.232;43.944;2022-10-16T16:43:39;14.43;;;7.07;;
69979;SDS011;57318;56.232;43.944;2022-10-16T16:46:06;15.57;;;7.53;;
69979;SDS011;57318;56.232;43.944;2022-10-16T16:48:32;13.27;;;7.13;;
69979;SDS011;57318;56.232;43.944;2022-10-16T16:51:09;13.43;;;6.88;;
69979;SDS011;57318;56.232;43.944;2022-10-16T16:53:40;11.75;;;6.65;;
69979;SDS011;57318;56.232;43.944;2022-10-16T16:56:07;14.00;;;6.78;;
69979;SDS011;57318;56.232;43.944;2022-10-16T16:58:32;10.67;;;6.67;;
69979;SDS011;57318;56.232;43.944;2022-10-16T17:00:59;11.40;;;6.65;;
69979;SDS011;57318;56.232;43.944;2022-10-16T17:03:32;13.35;;;6.93;;
69979;SDS011;57318;56.232;43.944;2022-10-16T17:05:59;12.40;;;6.75;;
69979;SDS011;57318;56.232;43.944;2022-10-16T17:08:27;10.20;;;6.68;;
69979;SDS011;57318;56.232;43.944;2022-10-16T17:10:54;9.50;;;6.57;;
69979;SDS011;57318;56.232;43.944;2022-10-16T17:13:23;10.35;;;6.63;;
69979;SDS011;57318;56.232;43.944;2022-10-16T17:15:51;10.60;;;6.55;;
69979;SDS011;57318;56.232;43.944;2022-10-16T17:18:17;11.63;;;6.75;;
69979;SDS011;57318;56.232;43.944;2022-10-16T17:20:44;12.37;;;6.13;;
69979;SDS011;57318;56.232;43.944;2022-10-16T17:23:10;11.57;;;6.50;;
69979;SDS011;57318;56.232;43.944;2022-10-16T17:25:37;9.55;;;6.05;;
69979;SDS011;57318;56.232;43.944;2022-10-16T17:28:03;7.85;;;5.47;;
69979;SDS011;57318;56.232;43.944;2022-10-16T17:30:29;10.30;;;5.97;;
69979;SDS011;57318;56.232;43.944;2022-10-16T17:32:54;10.17;;;5.50;;
69979;SDS011;57318;56.232;43.944;2022-10-16T17:35:20;12.50;;;6.33;;
69979;SDS011;57318;56.232;43.944;2022-10-16T17:37:46;12.27;;;5.97;;
69979;SDS011;57318;56.232;43.944;2022-10-16T17:40:12;14.03;;;5.97;;
69979;SDS011;57318;56.232;43.944;2022-10-16T17:42:37;10.70;;;5.60;;
69979;SDS011;57318;56.232;43.944;2022-10-16T17:45:03;9.80;;;5.60;;
69979;SDS011;57318;56.232;43.944;2022-10-16T17:47:29;11.80;;;6.45;;
69979;SDS011;57318;56.232;43.944;2022-10-16T17:49:55;17.23;;;6.10;;
69979;SDS011;57318;56.232;43.944;2022-10-16T17:52:22;11.05;;;5.82;;
69979;SDS011;57318;56.232;43.944;2022-10-16T17:54:51;9.20;;;5.90;;
69979;SDS011;57318;56.232;43.944;2022-10-16T17:57:17;13.10;;;5.65;;
69979;SDS011;57318;56.232;43.944;2022-10-16T17:59:42;9.57;;;5.73;;
69979;SDS011;57318;56.232;43.944;2022-10-16T18:02:09;18.30;;;10.17;;
69979;SDS011;57318;56.232;43.944;2022-10-16T18:04:38;8.02;;;5.55;;
69979;SDS011;57318;56.232;43.944;2022-10-16T18:07:04;8.40;;;5.30;;
69979;SDS011;57318;56.232;43.944;2022-10-16T18:09:30;7.25;;;5.10;;
69979;SDS011;57318;56.232;43.944;2022-10-16T18:11:56;8.43;;;5.40;;
69979;SDS011;57318;56.232;43.944;2022-10-16T18:14:28;11.20;;;5.28;;
69979;SDS011;57318;56.232;43.944;2022-10-16T18:16:55;10.38;;;5.25;;
69979;SDS011;57318;56.232;43.944;2022-10-16T18:19:22;9.45;;;5.38;;
69979;SDS011;57318;56.232;43.944;2022-10-16T18:21:48;8.50;;;5.20;;
69979;SDS011;57318;56.232;43.944;2022-10-16T18:24:15;7.17;;;5.10;;
69979;SDS011;57318;56.232;43.944;2022-10-16T18:26:41;12.40;;;6.85;;
69979;SDS011;57318;56.232;43.944;2022-10-16T18:29:08;10.97;;;4.77;;
69979;SDS011;57318;56.232;43.944;2022-10-16T18:31:35;9.70;;;5.60;;
69979;SDS011;57318;56.232;43.944;2022-10-16T18:34:01;9.00;;;6.03;;
69979;SDS011;57318;56.232;43.944;2022-10-16T18:36:28;16.57;;;5.70;;
69979;SDS011;57318;56.232;43.944;2022-10-16T18:38:57;10.20;;;5.00;;
69979;SDS011;57318;56.232;43.944;2022-10-16T18:41:24;14.13;;;6.15;;
69979;SDS011;57318;56.232;43.944;2022-10-16T18:43:50;9.98;;;5.28;;
69979;SDS011;57318;56.232;43.944;2022-10-16T18:46:17;15.33;;;5.67;;
69979;SDS011;57318;56.232;43.944;2022-10-16T18:48:45;8.80;;;5.75;;
69979;SDS011;57318;56.232;43.944;2022-10-16T18:51:23;11.68;;;5.70;;
69979;SDS011;57318;56.232;43.944;2022-10-16T18:53:52;11.63;;;5.93;;
69979;SDS011;57318;56.232;43.944;2022-10-16T18:56:20;9.52;;;5.60;;
69979;SDS011;57318;56.232;43.944;2022-10-16T18:58:48;13.68;;;5.97;;
69979;SDS011;57318;56.232;43.944;2022-10-16T19:01:19;9.73;;;5.25;;
69979;SDS011;57318;56.232;43.944;2022-10-16T19:03:47;8.85;;;5.18;;
69979;SDS011;57318;56.232;43.944;2022-10-16T19:06:14;13.65;;;6.00;;
69979;SDS011;57318;56.232;43.944;2022-10-16T19:13:40;8.40;;;5.50;;
69979;SDS011;57318;56.232;43.944;2022-10-16T19:18:37;12.75;;;5.85;;
69979;SDS011;57318;56.232;43.944;2022-10-16T19:21:06;8.20;;;5.30;;
69979;SDS011;57318;56.232;43.944;2022-10-16T19:23:33;8.93;;;5.03;;
69979;SDS011;57318;56.232;43.944;2022-10-16T19:26:03;12.07;;;5.13;;